Time;durP1;ratioP1;P1;durP2;ratioP2;P2;SDS_P1;SDS_P2;PMS_P1;PMS_P2;Temp;Humidity;BMP_temperature;BMP_pressure;BME280_temperature;BME280_humidity;BME280_pressure;Samples;Min_cycle;Max_cycle;Signal;HPM_P1;HPM_P2
2023/08/28 00:00:28;;;;;;;4.47;2.53;;;13.20;99.90;;;;;;5013444;28;20452;-68
2023/08/28 00:02:55;;;;;;;2.70;2.50;;;13.20;99.90;;;;;;5013190;28;20420;-68
2023/08/28 00:05:23;;;;;;;2.50;2.40;;;13.30;99.90;;;;;;5013362;28;20451;-68
2023/08/28 00:07:50;;;;;;;4.03;2.70;;;13.20;99.90;;;;;;5011478;28;20915;-68
2023/08/28 00:10:17;;;;;;;3.17;2.37;;;13.20;99.90;;;;;;5013198;28;20458;-68
2023/08/28 00:12:44;;;;;;;5.10;2.40;;;13.10;99.90;;;;;;5012537;28;20454;-68
2023/08/28 00:15:11;;;;;;;2.80;2.50;;;13.00;99.90;;;;;;5011656;28;20458;-68
2023/08/28 00:17:38;;;;;;;2.80;2.60;;;12.90;99.90;;;;;;5013046;28;20446;-69
2023/08/28 00:20:07;;;;;;;4.70;2.30;;;12.80;99.90;;;;;;5007047;28;20442;-68
2023/08/28 00:22:35;;;;;;;5.63;2.73;;;12.70;99.90;;;;;;5012429;28;20493;-68
2023/08/28 00:25:02;;;;;;;4.07;2.83;;;12.70;99.90;;;;;;5010181;28;20505;-68
2023/08/28 00:27:30;;;;;;;5.03;3.17;;;12.70;99.90;;;;;;5012109;28;20884;-68
2023/08/28 00:29:57;;;;;;;3.27;2.80;;;12.70;99.90;;;;;;5011657;28;21037;-69
2023/08/28 00:32:23;;;;;;;9.63;2.70;;;12.70;99.90;;;;;;5007991;28;20520;-69
2023/08/28 00:34:50;;;;;;;2.77;2.57;;;12.70;99.90;;;;;;5012040;28;20512;-69
2023/08/28 00:37:17;;;;;;;4.17;2.77;;;12.60;99.90;;;;;;5011438;28;20454;-69
2023/08/28 00:39:45;;;;;;;3.60;2.60;;;12.60;99.90;;;;;;5007474;28;21037;-68
2023/08/28 00:42:11;;;;;;;3.13;2.67;;;12.50;99.90;;;;;;5012090;28;20548;-69
2023/08/28 00:44:38;;;;;;;2.80;2.60;;;12.60;99.90;;;;;;5012500;28;20504;-68
2023/08/28 00:47:07;;;;;;;3.93;2.63;;;12.60;99.90;;;;;;5012082;28;20477;-69
2023/08/28 00:49:34;;;;;;;3.43;3.00;;;12.60;99.90;;;;;;5012317;28;20531;-69
2023/08/28 00:52:02;;;;;;;2.67;2.50;;;12.60;99.90;;;;;;5011622;28;20849;-69
2023/08/28 00:54:29;;;;;;;3.10;2.90;;;12.50;99.90;;;;;;5012050;28;20450;-69
2023/08/28 00:56:58;;;;;;;6.37;2.80;;;12.50;99.90;;;;;;5014882;28;20450;-68
2023/08/28 00:59:27;;;;;;;10.37;2.70;;;12.50;99.90;;;;;;5011666;28;20446;-68
2023/08/28 01:01:54;;;;;;;3.17;2.90;;;12.50;99.90;;;;;;5012048;28;20502;-69
2023/08/28 01:04:20;;;;;;;4.27;2.60;;;12.50;99.90;;;;;;5012280;28;20830;-69
2023/08/28 01:06:54;;;;;;;3.00;2.80;;;12.50;99.90;;;;;;5011710;28;20450;-69
2023/08/28 01:09:32;;;;;;;2.90;2.63;;;12.50;99.90;;;;;;5012429;28;20451;-69
2023/08/28 01:12:14;;;;;;;3.83;2.70;;;12.50;99.90;;;;;;5010785;28;20495;-68
2023/08/28 01:14:50;;;;;;;4.23;3.30;;;12.50;99.90;;;;;;5011861;28;20461;-69
2023/08/28 01:17:18;;;;;;;6.53;3.10;;;12.50;99.90;;;;;;5012044;28;20469;-69
2023/08/28 01:19:45;;;;;;;3.00;2.80;;;12.60;99.90;;;;;;5011464;28;20505;-68
2023/08/28 01:22:23;;;;;;;4.23;2.90;;;12.50;99.90;;;;;;5006765;28;20512;-69
2023/08/28 01:24:52;;;;;;;3.70;2.77;;;12.50;99.90;;;;;;5009599;28;20461;-69
2023/08/28 01:27:21;;;;;;;3.93;3.20;;;12.50;99.90;;;;;;5011038;28;20454;-69
2023/08/28 01:30:10;;;;;;;2.93;2.73;;;12.50;99.90;;;;;;5005810;28;20458;-69
2023/08/28 01:32:37;;;;;;;2.77;2.53;;;12.40;99.90;;;;;;5011385;28;20485;-68
2023/08/28 01:35:09;;;;;;;7.20;3.10;;;12.40;99.90;;;;;;5012348;28;20477;-69
2023/08/28 01:37:45;;;;;;;4.30;2.50;;;12.40;99.90;;;;;;5011751;28;20427;-69
2023/08/28 01:40:14;;;;;;;6.10;2.70;;;12.40;99.90;;;;;;5010881;28;20506;-68
2023/08/28 01:42:45;;;;;;;3.20;3.00;;;12.50;99.90;;;;;;5007390;28;20491;-69
2023/08/28 01:45:13;;;;;;;3.27;3.00;;;12.50;99.90;;;;;;5010588;28;20454;-69
2023/08/28 01:47:40;;;;;;;5.10;2.90;;;12.50;99.90;;;;;;5011307;28;20450;-68
2023/08/28 01:50:08;;;;;;;3.37;3.10;;;12.50;99.90;;;;;;5007951;28;20470;-69
2023/08/28 01:52:35;;;;;;;3.10;2.90;;;12.40;99.90;;;;;;5010684;28;20990;-69
2023/08/28 01:55:02;;;;;;;7.63;3.23;;;12.30;99.90;;;;;;5009875;28;20450;-69
2023/08/28 01:57:28;;;;;;;3.87;3.10;;;12.30;99.90;;;;;;5008581;28;20509;-69
2023/08/28 01:59:56;;;;;;;3.13;2.80;;;12.20;99.90;;;;;;5008324;28;20990;-68
2023/08/28 02:02:23;;;;;;;5.73;2.83;;;12.20;99.90;;;;;;5009814;28;20473;-69
2023/08/28 02:04:49;;;;;;;5.10;2.97;;;12.10;99.90;;;;;;5008167;28;20454;-68
2023/08/28 02:07:16;;;;;;;5.93;3.10;;;12.10;99.90;;;;;;5014554;28;20541;-69
2023/08/28 02:09:43;;;;;;;4.07;3.00;;;12.10;99.90;;;;;;5011053;28;20485;-68
2023/08/28 02:12:09;;;;;;;8.63;3.63;;;12.10;99.90;;;;;;5011151;28;20554;-68
2023/08/28 02:14:36;;;;;;;3.43;3.13;;;12.10;99.90;;;;;;5010921;28;20534;-69
2023/08/28 02:17:04;;;;;;;3.43;3.10;;;12.10;99.90;;;;;;5011062;28;20450;-68
2023/08/28 02:19:31;;;;;;;6.10;3.30;;;12.00;99.90;;;;;;5012856;28;20450;-68
2023/08/28 02:21:57;;;;;;;4.67;3.57;;;12.00;99.90;;;;;;5010730;28;20494;-68
2023/08/28 02:24:24;;;;;;;3.10;2.90;;;12.00;99.90;;;;;;5010499;28;20458;-69
2023/08/28 02:26:51;;;;;;;10.87;3.67;;;12.00;99.90;;;;;;5011150;28;20450;-69
2023/08/28 02:29:17;;;;;;;9.93;3.00;;;12.00;99.90;;;;;;5011164;28;20446;-69
2023/08/28 02:31:44;;;;;;;7.03;3.70;;;12.00;99.90;;;;;;5010390;28;20466;-69
2023/08/28 02:34:12;;;;;;;8.97;3.30;;;11.90;99.90;;;;;;5010341;28;20442;-68
2023/08/28 02:36:39;;;;;;;3.70;3.40;;;11.90;99.90;;;;;;5010946;28;20936;-68
2023/08/28 02:39:05;;;;;;;3.57;3.27;;;11.80;99.90;;;;;;5013869;28;20466;-69
2023/08/28 02:41:32;;;;;;;3.47;3.20;;;11.80;99.90;;;;;;5014525;28;20469;-69
2023/08/28 02:43:59;;;;;;;3.50;3.20;;;11.70;99.90;;;;;;5015090;28;20454;-68
2023/08/28 02:46:25;;;;;;;3.50;3.30;;;11.70;99.90;;;;;;5014297;28;20856;-68
2023/08/28 02:48:52;;;;;;;3.50;3.20;;;11.80;99.90;;;;;;5014857;28;20446;-68
2023/08/28 02:51:20;;;;;;;6.13;3.30;;;11.70;99.90;;;;;;5014751;28;20469;-69
2023/08/28 02:53:46;;;;;;;7.40;3.53;;;11.70;99.90;;;;;;5014123;28;20504;-68
2023/08/28 02:56:24;;;;;;;6.80;3.90;;;11.70;99.90;;;;;;5015916;28;20496;-69
2023/08/28 02:58:51;;;;;;;5.40;3.73;;;11.70;99.90;;;;;;5010960;28;20592;-69
2023/08/28 03:01:19;;;;;;;5.17;3.63;;;11.70;99.90;;;;;;5013927;28;20464;-69
2023/08/28 03:03:45;;;;;;;7.63;3.33;;;11.70;99.90;;;;;;5014065;28;20547;-69
2023/08/28 03:06:12;;;;;;;7.10;3.70;;;11.70;99.90;;;;;;5014575;28;20460;-69
2023/08/28 03:08:40;;;;;;;4.03;3.63;;;11.70;99.90;;;;;;5007448;28;20585;-68
2023/08/28 03:11:07;;;;;;;8.07;3.87;;;11.70;99.90;;;;;;5010756;28;20609;-68
2023/08/28 03:13:33;;;;;;;3.93;3.63;;;11.70;99.90;;;;;;5014075;28;20450;-69
2023/08/28 03:16:00;;;;;;;4.10;3.80;;;11.70;99.90;;;;;;5013919;28;20450;-69
2023/08/28 03:18:27;;;;;;;4.03;3.60;;;11.70;99.90;;;;;;5014591;28;20814;-68
2023/08/28 03:20:53;;;;;;;4.50;3.57;;;11.60;99.90;;;;;;5010475;28;20486;-69
2023/08/28 03:23:20;;;;;;;4.13;3.53;;;11.50;99.90;;;;;;5013824;28;20543;-69
2023/08/28 03:25:49;;;;;;;4.80;3.70;;;11.40;99.90;;;;;;5014011;28;20496;-68
2023/08/28 03:28:16;;;;;;;4.53;4.00;;;11.30;99.90;;;;;;5016491;28;20453;-68
2023/08/28 03:30:43;;;;;;;6.57;3.90;;;11.30;99.90;;;;;;5014954;28;20501;-69
2023/08/28 03:33:09;;;;;;;6.37;4.00;;;11.40;99.90;;;;;;5013860;28;21039;-68
2023/08/28 03:35:36;;;;;;;5.07;3.53;;;11.40;99.90;;;;;;5013412;28;20936;-69
2023/08/28 03:38:03;;;;;;;4.30;3.67;;;11.40;99.90;;;;;;5013059;28;20548;-69
2023/08/28 03:40:29;;;;;;;4.63;3.83;;;11.40;99.90;;;;;;5011064;28;20470;-68
2023/08/28 03:42:57;;;;;;;4.40;3.90;;;11.40;99.90;;;;;;5013522;28;21004;-69
2023/08/28 03:45:24;;;;;;;4.43;3.40;;;11.40;99.90;;;;;;5013959;28;20465;-69
2023/08/28 03:47:50;;;;;;;5.20;4.70;;;11.30;99.90;;;;;;5012906;28;20891;-69
2023/08/28 03:50:17;;;;;;;3.50;3.30;;;11.30;99.90;;;;;;5013608;28;20512;-69
2023/08/28 03:52:44;;;;;;;7.23;3.70;;;11.30;99.90;;;;;;5013042;28;20458;-68
2023/08/28 03:55:10;;;;;;;5.00;3.90;;;11.30;99.90;;;;;;5010685;28;20884;-69
2023/08/28 03:57:37;;;;;;;5.20;3.70;;;11.30;99.90;;;;;;5013259;28;20820;-69
2023/08/28 04:00:11;;;;;;;5.27;4.77;;;11.20;99.90;;;;;;5013299;28;20451;-69
2023/08/28 04:02:38;;;;;;;6.03;4.03;;;11.20;99.90;;;;;;5013127;28;20500;-68
2023/08/28 04:05:06;;;;;;;9.30;4.50;;;11.20;99.90;;;;;;5016940;28;20536;-68
2023/08/28 04:07:33;;;;;;;7.47;4.57;;;11.20;99.90;;;;;;5012963;28;20463;-68
2023/08/28 04:10:00;;;;;;;4.53;3.53;;;11.20;99.90;;;;;;5013321;28;20508;-69
2023/08/28 04:12:27;;;;;;;5.63;3.90;;;11.20;99.90;;;;;;5013076;28;20442;-68
2023/08/28 04:14:53;;;;;;;5.00;3.80;;;11.20;99.90;;;;;;5013136;28;20458;-68
2023/08/28 04:17:21;;;;;;;8.53;3.53;;;11.20;99.90;;;;;;5010997;28;21026;-69
2023/08/28 04:19:51;;;;;;;4.40;2.97;;;11.20;99.90;;;;;;5015931;28;20458;-69
2023/08/28 04:22:18;;;;;;;5.80;2.90;;;11.20;99.90;;;;;;5008549;28;20489;-69
2023/08/28 04:24:45;;;;;;;4.20;3.23;;;11.30;99.90;;;;;;5012750;28;20458;-69
2023/08/28 04:27:12;;;;;;;5.60;2.73;;;11.20;99.90;;;;;;5012906;28;20462;-69
2023/08/28 04:29:39;;;;;;;4.13;3.00;;;11.20;99.90;;;;;;5011361;28;20462;-68
2023/08/28 04:32:06;;;;;;;3.63;2.87;;;11.20;99.90;;;;;;5006434;28;20474;-69
2023/08/28 04:34:34;;;;;;;3.60;3.40;;;11.20;99.90;;;;;;5009690;28;20525;-69
2023/08/28 04:37:01;;;;;;;6.07;3.10;;;11.10;99.90;;;;;;5011205;28;20454;-69
2023/08/28 04:39:28;;;;;;;4.80;3.30;;;11.20;99.90;;;;;;5011691;28;21007;-69
2023/08/28 04:41:55;;;;;;;3.63;3.03;;;11.20;99.90;;;;;;5011790;28;20462;-69
2023/08/28 04:44:22;;;;;;;2.87;2.67;;;11.20;99.90;;;;;;5012006;28;20532;-68
2023/08/28 04:46:48;;;;;;;4.20;3.10;;;11.20;99.90;;;;;;5011662;28;20442;-68
2023/08/28 04:49:15;;;;;;;3.47;3.00;;;11.20;99.90;;;;;;5010413;28;20833;-69
2023/08/28 04:51:43;;;;;;;3.67;3.40;;;11.20;99.90;;;;;;5011839;28;20478;-68
2023/08/28 04:54:10;;;;;;;3.60;3.30;;;11.20;99.90;;;;;;5012484;28;21019;-69
2023/08/28 04:56:37;;;;;;;6.70;3.60;;;11.20;99.90;;;;;;5012510;28;20505;-69
2023/08/28 04:59:04;;;;;;;7.00;3.73;;;11.20;99.90;;;;;;5012269;28;20512;-69
2023/08/28 05:01:31;;;;;;;5.10;3.97;;;11.20;99.90;;;;;;5010276;28;20482;-68
2023/08/28 05:03:58;;;;;;;10.40;4.30;;;11.20;99.90;;;;;;5010608;28;20485;-69
2023/08/28 05:06:24;;;;;;;4.63;3.93;;;11.20;99.90;;;;;;5012060;28;20457;-68
2023/08/28 05:08:52;;;;;;;5.10;4.70;;;11.30;99.90;;;;;;5012318;28;20450;-69
2023/08/28 05:11:19;;;;;;;7.30;5.00;;;11.30;99.90;;;;;;5011902;28;20463;-68
2023/08/28 05:13:46;;;;;;;6.17;5.00;;;11.30;99.90;;;;;;5011819;28;20545;-69
2023/08/28 05:16:13;;;;;;;11.20;4.83;;;11.40;99.90;;;;;;5009916;28;20510;-69
2023/08/28 05:18:39;;;;;;;6.10;4.70;;;11.40;99.90;;;;;;5012078;28;20477;-68
2023/08/28 05:21:06;;;;;;;6.17;5.57;;;11.50;99.90;;;;;;5011596;28;20527;-68
2023/08/28 05:23:33;;;;;;;10.33;5.40;;;11.50;99.90;;;;;;5013183;28;20496;-69
2023/08/28 05:26:01;;;;;;;6.10;5.10;;;11.60;99.90;;;;;;5011901;28;20446;-69
2023/08/28 05:28:27;;;;;;;6.40;5.13;;;11.60;99.90;;;;;;5010503;28;20881;-69
2023/08/28 05:30:54;;;;;;;5.50;5.00;;;11.70;99.90;;;;;;5008712;28;20474;-69
2023/08/28 05:33:20;;;;;;;8.70;5.50;;;11.80;99.90;;;;;;5008244;28;20485;-69
2023/08/28 05:35:47;;;;;;;9.17;5.00;;;11.90;99.90;;;;;;5011744;28;20453;-69
2023/08/28 05:38:14;;;;;;;4.93;4.50;;;12.00;99.90;;;;;;5010741;28;20956;-69
2023/08/28 05:40:40;;;;;;;5.30;4.80;;;12.10;99.90;;;;;;5007776;28;20478;-69
2023/08/28 05:43:08;;;;;;;6.00;4.80;;;12.20;99.90;;;;;;5011331;28;20553;-68
2023/08/28 05:45:35;;;;;;;9.83;4.77;;;12.30;99.90;;;;;;5011398;28;20428;-70
2023/08/28 05:48:02;;;;;;;4.63;4.20;;;12.30;99.90;;;;;;5011427;28;20867;-70
2023/08/28 05:50:28;;;;;;;6.60;4.37;;;12.40;99.90;;;;;;5007317;28;20477;-78
2023/08/28 05:52:55;;;;;;;4.40;4.00;;;12.50;99.90;;;;;;5024208;28;20445;-79
2023/08/28 05:55:21;;;;;;;5.60;4.20;;;12.80;99.90;;;;;;5021751;28;20500;-78
2023/08/28 05:57:48;;;;;;;4.83;4.23;;;13.20;99.90;;;;;;5021784;28;20481;-78
2023/08/28 06:00:17;;;;;;;4.83;3.93;;;13.30;99.90;;;;;;5017984;28;20456;-78
2023/08/28 06:02:44;;;;;;;5.10;3.83;;;13.40;99.90;;;;;;5017391;28;20536;-79
2023/08/28 06:05:10;;;;;;;13.57;4.40;;;13.50;99.90;;;;;;5009465;28;20483;-79
2023/08/28 06:07:37;;;;;;;4.50;4.07;;;13.50;99.90;;;;;;5008047;28;20455;-78
2023/08/28 06:10:05;;;;;;;6.37;3.77;;;13.60;99.90;;;;;;5018083;28;20437;-78
2023/08/28 06:12:32;;;;;;;5.40;3.90;;;13.80;99.90;;;;;;5016789;28;20450;-79
2023/08/28 06:14:59;;;;;;;4.77;3.90;;;14.10;99.90;;;;;;5016397;28;20465;-78
2023/08/28 06:17:27;;;;;;;5.50;3.93;;;14.30;99.90;;;;;;5016229;28;20431;-78
2023/08/28 06:19:55;;;;;;;4.47;3.50;;;14.40;99.90;;;;;;5017795;28;20438;-77
2023/08/28 06:22:22;;;;;;;4.80;4.07;;;14.40;99.90;;;;;;5016988;28;20553;-74
2023/08/28 06:24:52;;;;;;;4.32;3.40;;;14.40;99.90;;;;;;5016042;28;20839;-68
2023/08/28 06:27:19;;;;;;;8.23;4.10;;;14.20;99.90;;;;;;5016504;28;20676;-68
2023/08/28 06:29:46;;;;;;;4.93;4.43;;;13.90;99.90;;;;;;5017147;28;20420;-67
2023/08/28 06:32:13;;;;;;;4.87;4.40;;;13.70;99.90;;;;;;5015387;28;20572;-69
2023/08/28 06:34:41;;;;;;;4.30;3.90;;;13.60;99.90;;;;;;5017091;28;20465;-66
2023/08/28 06:37:08;;;;;;;5.93;4.50;;;13.40;99.90;;;;;;5017092;28;20959;-67
2023/08/28 06:39:35;;;;;;;5.10;4.53;;;13.30;99.90;;;;;;5015616;28;20503;-68
2023/08/28 06:42:02;;;;;;;5.90;4.73;;;13.20;99.90;;;;;;5016165;28;20476;-68
2023/08/28 06:44:29;;;;;;;5.27;4.80;;;13.10;99.90;;;;;;5016828;28;20471;-67
2023/08/28 06:46:56;;;;;;;6.70;4.87;;;13.10;99.90;;;;;;5016966;28;20459;-67
2023/08/28 06:49:23;;;;;;;4.97;4.57;;;13.00;99.90;;;;;;5016676;28;20432;-68
2023/08/28 06:51:51;;;;;;;5.70;5.20;;;13.10;99.90;;;;;;5016424;28;20887;-67
2023/08/28 06:54:17;;;;;;;6.20;5.40;;;13.10;99.90;;;;;;5016882;28;20504;-68
2023/08/28 06:56:44;;;;;;;6.17;5.57;;;13.00;99.90;;;;;;5016850;28;21046;-68
2023/08/28 06:59:11;;;;;;;6.77;5.60;;;12.90;99.90;;;;;;5016158;28;20456;-68
2023/08/28 07:01:37;;;;;;;6.20;5.57;;;12.90;99.90;;;;;;5014858;28;20469;-68
2023/08/28 07:04:05;;;;;;;5.60;5.07;;;12.90;99.90;;;;;;5016384;28;20455;-68
2023/08/28 07:06:31;;;;;;;8.33;5.17;;;13.00;99.90;;;;;;5016663;28;20449;-68
2023/08/28 07:08:59;;;;;;;8.60;5.80;;;13.00;99.90;;;;;;5016622;28;20943;-68
2023/08/28 07:11:26;;;;;;;8.00;5.43;;;13.00;99.90;;;;;;5014507;28;20480;-68
2023/08/28 07:13:54;;;;;;;6.43;5.20;;;13.10;99.90;;;;;;5016416;28;20496;-68
2023/08/28 07:16:21;;;;;;;7.63;5.67;;;13.10;99.90;;;;;;5017040;28;20450;-69
2023/08/28 07:18:48;;;;;;;11.73;5.93;;;13.20;99.90;;;;;;5016394;28;20985;-69
2023/08/28 07:21:15;;;;;;;5.70;5.10;;;13.10;99.90;;;;;;5016345;28;20488;-68
2023/08/28 07:23:42;;;;;;;7.43;5.23;;;13.20;99.90;;;;;;5017843;28;20478;-69
2023/08/28 07:26:10;;;;;;;7.00;5.50;;;13.30;99.90;;;;;;5019868;28;20453;-68
2023/08/28 07:28:36;;;;;;;9.90;5.57;;;13.40;99.90;;;;;;5019365;28;21033;-69
2023/08/28 07:31:03;;;;;;;9.73;5.43;;;13.60;99.90;;;;;;5018103;28;20444;-69
2023/08/28 07:33:30;;;;;;;8.37;5.47;;;13.60;99.90;;;;;;5019575;28;20971;-69
2023/08/28 07:35:57;;;;;;;6.33;4.80;;;13.70;99.90;;;;;;5020141;28;20460;-68
2023/08/28 07:38:23;;;;;;;12.47;5.60;;;13.80;99.90;;;;;;5019880;28;20542;-68
2023/08/28 07:40:50;;;;;;;6.77;4.83;;;13.80;99.90;;;;;;5019417;28;20900;-69
2023/08/28 07:43:18;;;;;;;5.73;5.03;;;13.80;99.90;;;;;;5018849;28;20481;-69
2023/08/28 07:45:45;;;;;;;6.93;5.40;;;13.80;99.90;;;;;;5019921;28;20437;-69
2023/08/28 07:48:12;;;;;;;6.23;4.93;;;13.80;99.90;;;;;;5020247;28;20444;-68
2023/08/28 07:50:40;;;;;;;11.50;4.87;;;13.80;99.90;;;;;;5019839;28;20478;-69
2023/08/28 07:53:06;;;;;;;4.83;4.40;;;13.70;99.90;;;;;;5019496;28;20613;-68
2023/08/28 07:55:33;;;;;;;5.47;4.60;;;13.70;99.90;;;;;;5018614;28;20939;-68
2023/08/28 07:58:00;;;;;;;6.10;4.73;;;13.80;99.90;;;;;;5020449;28;20473;-68
2023/08/28 08:00:28;;;;;;;6.77;4.97;;;14.00;99.90;;;;;;5019180;28;20480;-68
2023/08/28 08:02:55;;;;;;;6.40;4.77;;;14.10;99.90;;;;;;5018789;28;21011;-69
2023/08/28 08:05:21;;;;;;;5.80;5.30;;;14.30;99.90;;;;;;5018542;28;20464;-69
2023/08/28 08:07:49;;;;;;;7.27;4.60;;;14.40;99.90;;;;;;5019015;28;20516;-68
2023/08/28 08:10:15;;;;;;;5.60;4.53;;;14.50;99.90;;;;;;5019085;28;20452;-68
2023/08/28 08:12:44;;;;;;;4.97;4.43;;;14.50;99.90;;;;;;5019145;28;20449;-69
2023/08/28 08:15:11;;;;;;;7.00;5.30;;;14.70;99.90;;;;;;5019389;28;20848;-68
2023/08/28 08:17:39;;;;;;;6.70;4.60;;;14.80;99.90;;;;;;5019475;28;20572;-68
2023/08/28 08:20:09;;;;;;;7.87;4.80;;;15.00;99.90;;;;;;5018849;28;20445;-68
2023/08/28 08:22:36;;;;;;;4.80;4.40;;;15.10;99.90;;;;;;5019244;28;20435;-67
2023/08/28 08:25:04;;;;;;;5.97;4.13;;;15.30;99.90;;;;;;5019464;28;20518;-69
2023/08/28 08:27:30;;;;;;;9.60;4.17;;;15.40;99.90;;;;;;5018750;28;20453;-69
2023/08/28 08:29:57;;;;;;;7.03;4.10;;;15.60;99.90;;;;;;5018161;28;20861;-68
2023/08/28 08:32:24;;;;;;;6.73;4.00;;;15.60;99.90;;;;;;5018208;28;20504;-68
2023/08/28 08:34:52;;;;;;;5.60;4.07;;;15.80;99.90;;;;;;5017126;28;20428;-67
2023/08/28 08:37:18;;;;;;;6.90;4.40;;;15.90;99.90;;;;;;5018027;28;20452;-66
2023/08/28 08:39:45;;;;;;;6.33;4.93;;;16.00;99.90;;;;;;5017073;28;20494;-67
2023/08/28 08:42:12;;;;;;;5.43;4.93;;;16.10;99.90;;;;;;5016814;28;20449;-67
2023/08/28 08:44:39;;;;;;;8.73;4.97;;;16.20;99.90;;;;;;5017811;28;20459;-68
2023/08/28 08:47:06;;;;;;;10.60;5.17;;;16.30;99.90;;;;;;5015915;28;20454;-68
2023/08/28 08:49:33;;;;;;;9.10;5.20;;;16.50;99.90;;;;;;5017173;28;20432;-68
2023/08/28 08:52:06;;;;;;;10.13;5.20;;;16.70;99.90;;;;;;5017381;28;20443;-68
2023/08/28 08:54:39;;;;;;;6.77;5.37;;;16.80;99.90;;;;;;5017350;28;20507;-68
2023/08/28 08:57:10;;;;;;;7.20;4.97;;;17.00;99.90;;;;;;5017287;28;20440;-68
2023/08/28 08:59:36;;;;;;;5.60;5.10;;;17.10;99.90;;;;;;5016589;28;20480;-68
2023/08/28 09:02:03;;;;;;;5.77;5.27;;;17.30;99.90;;;;;;5015634;28;20485;-67
2023/08/28 09:04:31;;;;;;;10.33;5.70;;;17.20;99.90;;;;;;5017908;28;20469;-68
2023/08/28 09:06:59;;;;;;;9.60;6.90;;;17.20;99.90;;;;;;5017998;28;20507;-67
2023/08/28 09:09:27;;;;;;;12.70;6.60;;;17.30;99.90;;;;;;5017275;28;20428;-68
2023/08/28 09:11:54;;;;;;;6.40;5.80;;;17.30;99.90;;;;;;5016536;28;20452;-67
2023/08/28 09:14:21;;;;;;;8.07;6.40;;;17.30;99.90;;;;;;5016243;28;20511;-67
2023/08/28 09:16:47;;;;;;;9.87;6.23;;;17.40;99.90;;;;;;5016763;28;20428;-68
2023/08/28 09:19:14;;;;;;;7.90;5.90;;;17.40;99.90;;;;;;5018598;28;20444;-68
2023/08/28 09:21:45;;;;;;;8.80;6.20;;;17.40;99.90;;;;;;5016551;28;20870;-69
2023/08/28 09:24:11;;;;;;;8.13;6.10;;;17.40;99.90;;;;;;5016396;28;20459;-68
2023/08/28 09:26:39;;;;;;;8.00;6.40;;;17.40;99.90;;;;;;5017388;28;20469;-68
2023/08/28 09:29:08;;;;;;;7.33;5.77;;;17.40;99.90;;;;;;5016950;28;20424;-68
2023/08/28 09:31:36;;;;;;;6.67;5.73;;;17.40;99.90;;;;;;5017348;28;20453;-68
2023/08/28 09:34:04;;;;;;;7.50;5.60;;;17.40;99.90;;;;;;5017494;28;20500;-67
2023/08/28 09:36:34;;;;;;;6.13;5.50;;;17.50;99.90;;;;;;5016471;28;20488;-68
2023/08/28 09:39:03;;;;;;;8.00;5.40;;;17.50;99.90;;;;;;5016396;28;20458;-68
2023/08/28 09:41:39;;;;;;;9.70;5.90;;;17.50;99.90;;;;;;5015861;28;20456;-67
2023/08/28 09:44:06;;;;;;;6.13;5.47;;;17.60;99.90;;;;;;5017852;28;20447;-67
2023/08/28 09:46:38;;;;;;;5.60;4.80;;;17.60;99.90;;;;;;5015801;28;20516;-68
2023/08/28 09:49:05;;;;;;;8.93;5.60;;;17.80;99.90;;;;;;5016311;28;20866;-67
2023/08/28 09:51:41;;;;;;;10.10;5.20;;;17.90;99.90;;;;;;5016428;28;20465;-68
2023/08/28 09:54:08;;;;;;;6.70;4.80;;;18.00;99.90;;;;;;5017160;28;20995;-67
2023/08/28 09:56:34;;;;;;;6.00;5.40;;;18.00;99.90;;;;;;5016825;28;20454;-67
2023/08/28 09:59:03;;;;;;;9.80;5.87;;;18.10;99.90;;;;;;5017444;28;20450;-67
2023/08/28 10:01:32;;;;;;;8.70;5.23;;;18.20;99.90;;;;;;5015363;28;20476;-68
2023/08/28 10:04:00;;;;;;;7.20;5.30;;;18.20;99.90;;;;;;5016935;28;20453;-67
2023/08/28 10:06:28;;;;;;;7.63;5.70;;;18.10;99.90;;;;;;5013542;28;20560;-67
2023/08/28 10:08:59;;;;;;;6.33;5.70;;;17.80;99.90;;;;;;5016700;28;20500;-67
2023/08/28 10:11:33;;;;;;;7.10;4.97;;;17.50;99.90;;;;;;5014350;28;20519;-67
2023/08/28 10:14:03;;;;;;;7.27;6.00;;;17.30;99.90;;;;;;5015711;28;20977;-66
2023/08/28 10:16:33;;;;;;;7.03;5.97;;;17.10;99.90;;;;;;5015083;28;20542;-68
2023/08/28 10:19:08;;;;;;;6.67;5.83;;;17.10;99.90;;;;;;5016647;28;20461;-67
2023/08/28 10:21:36;;;;;;;8.23;7.43;;;17.00;99.90;;;;;;5015530;28;20483;-67
2023/08/28 10:24:03;;;;;;;6.30;5.70;;;17.00;99.90;;;;;;5016342;28;20454;-67
2023/08/28 10:26:30;;;;;;;7.60;6.13;;;17.00;99.90;;;;;;5016241;28;20466;-67
2023/08/28 10:28:57;;;;;;;9.43;6.27;;;17.00;99.90;;;;;;5015967;28;20527;-67
2023/08/28 10:31:26;;;;;;;7.03;6.33;;;17.10;99.90;;;;;;5015338;28;20463;-67
2023/08/28 10:33:53;;;;;;;7.57;6.77;;;17.20;99.90;;;;;;5015742;28;20519;-67
2023/08/28 10:36:23;;;;;;;9.50;6.80;;;17.40;99.90;;;;;;5016206;28;21028;-68
2023/08/28 10:38:52;;;;;;;8.70;6.47;;;17.50;99.90;;;;;;5016380;28;20875;-68
2023/08/28 10:41:20;;;;;;;6.77;6.17;;;17.60;99.90;;;;;;5016482;28;20839;-68
2023/08/28 10:43:48;;;;;;;9.40;6.70;;;17.90;99.90;;;;;;5016236;28;20424;-67
2023/08/28 10:46:16;;;;;;;15.03;6.73;;;18.00;99.90;;;;;;5016511;28;20550;-67
2023/08/28 10:48:46;;;;;;;8.03;6.10;;;18.20;99.90;;;;;;5016368;28;21017;-67
2023/08/28 10:51:13;;;;;;;7.50;6.10;;;18.40;99.90;;;;;;5015745;28;20482;-67
2023/08/28 10:53:40;;;;;;;9.73;7.13;;;18.60;99.90;;;;;;5015494;28;20964;-68
2023/08/28 10:56:07;;;;;;;9.03;6.30;;;18.80;99.90;;;;;;5016620;28;20524;-67
2023/08/28 10:58:38;;;;;;;7.30;5.93;;;18.70;99.90;;;;;;5016565;28;20446;-68
2023/08/28 11:01:12;;;;;;;6.13;5.63;;;18.90;99.90;;;;;;5019548;28;21776;-68
2023/08/28 11:03:57;;;;;;;5.93;5.43;;;19.00;99.90;;;;;;5019909;28;20939;-67
2023/08/28 11:06:37;;;;;;;8.17;5.97;;;19.20;99.90;;;;;;5019418;28;20485;-68
2023/08/28 11:09:35;;;;;;;6.10;5.50;;;19.40;99.90;;;;;;5020581;28;20487;-67
2023/08/28 11:12:26;;;;;;;6.30;5.50;;;19.50;99.90;;;;;;5020569;28;20478;-68
2023/08/28 11:15:00;;;;;;;5.83;4.70;;;19.60;99.90;;;;;;5018739;28;20484;-68
2023/08/28 11:17:27;;;;;;;5.47;4.53;;;19.70;99.90;;;;;;5019268;28;20884;-68
2023/08/28 11:20:10;;;;;;;5.27;4.57;;;19.80;99.90;;;;;;5020337;28;20509;-68
2023/08/28 11:22:38;;;;;;;4.70;4.30;;;19.80;99.90;;;;;;5019918;28;20875;-67
2023/08/28 11:25:07;;;;;;;6.83;4.33;;;19.90;99.90;;;;;;5019382;28;21008;-67
2023/08/28 11:27:42;;;;;;;7.93;4.93;;;20.10;99.90;;;;;;5024014;28;20524;-79
2023/08/28 11:30:10;;;;;;;7.07;4.83;;;20.70;99.90;;;;;;5024762;28;20464;-78
2023/08/28 11:32:38;;;;;;;6.53;4.70;;;21.00;99.90;;;;;;5023553;28;20462;-79
2023/08/28 11:35:09;;;;;;;5.87;3.73;;;21.00;99.90;;;;;;5026689;28;20814;-77
2023/08/28 11:37:37;;;;;;;5.20;3.50;;;20.90;99.90;;;;;;5023506;28;20466;-77
2023/08/28 11:40:06;;;;;;;5.23;3.73;;;20.80;99.90;;;;;;5025779;28;20822;-78
2023/08/28 11:42:33;;;;;;;4.63;3.60;;;20.90;99.90;;;;;;5027084;28;20449;-77
2023/08/28 11:45:00;;;;;;;4.60;4.20;;;21.00;99.90;;;;;;5024483;28;20527;-77
2023/08/28 11:47:28;;;;;;;6.63;4.40;;;21.20;99.90;;;;;;5024583;28;20454;-77
2023/08/28 11:49:55;;;;;;;4.70;4.30;;;21.20;99.90;;;;;;5024119;28;20460;-80
2023/08/28 11:52:24;;;;;;;6.13;4.87;;;21.10;99.90;;;;;;5020575;28;20454;-76
2023/08/28 11:54:52;;;;;;;3.37;3.17;;;20.90;99.90;;;;;;5019933;28;20443;-77
2023/08/28 11:57:21;;;;;;;3.70;2.80;;;21.00;99.90;;;;;;5020444;28;20457;-79
2023/08/28 11:59:49;;;;;;;4.03;3.47;;;21.00;99.90;;;;;;5021052;28;20454;-78
2023/08/28 12:02:16;;;;;;;6.77;4.20;;;21.00;99.90;;;;;;5021587;28;20930;-77
2023/08/28 12:04:44;;;;;;;4.07;3.17;;;21.10;99.90;;;;;;5021229;28;20912;-79
2023/08/28 12:07:17;;;;;;;3.80;2.97;;;21.10;99.90;;;;;;5023751;28;20516;-78
2023/08/28 12:09:47;;;;;;;4.13;3.30;;;21.10;99.90;;;;;;5021396;28;20550;-78
2023/08/28 12:12:14;;;;;;;4.13;3.57;;;21.20;99.90;;;;;;5021513;28;20474;-79
2023/08/28 12:14:43;;;;;;;3.40;3.10;;;21.00;99.90;;;;;;5022411;28;20458;-78
2023/08/28 12:17:14;;;;;;;4.73;3.87;;;20.70;99.90;;;;;;5023095;28;20460;-78
2023/08/28 12:19:40;;;;;;;4.17;3.80;;;20.60;99.90;;;;;;5024489;28;20450;-77
2023/08/28 12:22:08;;;;;;;4.40;3.80;;;20.50;99.90;;;;;;5021543;28;20481;-77
2023/08/28 12:24:39;;;;;;;9.07;3.03;;;20.60;99.90;;;;;;5020271;28;20449;-78
2023/08/28 12:27:07;;;;;;;3.60;3.13;;;20.60;99.90;;;;;;5018836;28;20446;-78
2023/08/28 12:29:34;;;;;;;4.77;3.00;;;20.80;99.90;;;;;;5019868;28;21966;-77
2023/08/28 12:32:05;;;;;;;5.80;3.23;;;21.00;99.90;;;;;;5017859;28;20474;-75
2023/08/28 12:34:33;;;;;;;3.47;3.17;;;21.40;99.90;;;;;;5019896;28;20461;-77
2023/08/28 12:37:05;;;;;;;6.40;4.57;;;21.50;99.90;;;;;;5016943;28;21056;-76
2023/08/28 12:39:32;;;;;;;4.13;3.47;;;21.60;99.90;;;;;;5018376;28;21035;-80
2023/08/28 12:41:59;;;;;;;4.70;3.70;;;22.00;99.90;;;;;;5019055;28;20484;-79
2023/08/28 12:44:28;;;;;;;5.83;3.23;;;22.20;99.90;;;;;;5021482;28;20516;-79
2023/08/28 12:46:55;;;;;;;4.53;3.40;;;22.30;99.90;;;;;;5023904;28;20571;-79
2023/08/28 12:49:22;;;;;;;4.90;4.20;;;22.10;99.90;;;;;;5023271;28;21002;-79